Flugplatz Frankfurt-Hahn

Bericht für EDFH

vom 23.02. um 23:20 UTC

Wind 8 kt aus 320°

Sichtweite 10 km oder mehr

aufgebrochene Bewölkung in 1000 ft

Temperatur 4.0°C

Taupunkt 3.0°C

Luftfeuchtigkeit 93%

Luftdruck 1023 hPa

EDFH 232320Z 32008KT 290V350 9999 BKN010 04/03 Q1023

Prognose für EDFH

vom 23.02. um 00:00 UTC

Zwischen 00:00 UTC und 00:00 UTC

Wind 10 kt aus 300°

Sichtweite 10 km oder mehr

aufgelockert bewölkt in 800 ft


Zwischen 00:00 und 00:00 UTC übergehend zu

Wind 5 kt aus 220°

Sichtweite 10 km oder mehr

aufgebrochene Bewölkung in 800 ft


Zwischen 00:00 UTC und 00:00 UTC zeitweise

Sichtweite 2500 m

Regen

feuchter Dunst

aufgebrochene Bewölkung in 400 ft


Zwischen 00:00 und 00:00 UTC übergehend zu

Wind 15 kt aus 230° in Böen 25 kt

Sichtweite 10 km oder mehr

aufgebrochene Bewölkung in 800 ft


Zwischen 00:00 UTC und 00:00 UTC zeitweise

aufgebrochene Bewölkung in 400 ft


Zwischen 00:00 UTC und 00:00 UTC zeitweise

Wind 20 kt aus 240° in Böen 35 kt

Regen

TAF EDFH 232300Z 2400/2424 30010KT 9999 SCT008 BECMG 2401/2405 22005KT BKN008 TEMPO 2404/2411 2500 RA BR BKN004 BECMG 2409/2413 23015G25KT TEMPO 2411/2413 BKN004 TEMPO 2421/2424 24020G35KT RA
Impressum